Greenview, CA (96037)

7:18 AM PDT on September 16, 2014 (GMT -0700)
KCAETNA3 | Change Station
CLOSE
Current Station
Personal Weather Station
Location: Island Rd, Scott Valley, CA
Elevation: 2728 ft
Nearby Weather Stations

Elev 2728 ft 41.55 °N, 122.85 °W | Updated 28 seconds ago

Clear
Clear
39.0 °F
Feels Like 39 °F
N
1.0
Wind Variable Wind from South
Gusts 2.0 mph

Today
High -- | Low -- °F
--% Chance of Precip.
Yesterday
High -- | Low -- °F
Precip. -- in
6:53 AM 7:19 PM
Last Quarter, 45% visible
Pressure 29.91 in
Visibility 10.0 miles
Clouds Clear
Windchill 39 °F
Dew Point 36 °F
Humidity 87%
Rainfall 0.00 in
Snow Depth 0 in , 0 in , 1 in
UV 0 out of 12
Pollen 4.20 out of 12
Air Quality Not available.
Flu Activity Not available.
METAR KSIY 161353Z AUTO 04008KT 10SM CLR 12/01 A2994 RMK AO2 SLP128 T01170011

More Conditions Fewer Conditions

Pressure 29.91 in
Visibility 10.0 miles
Clouds Clear
Windchill 39 °F
Dew Point 36 °F
Humidity 87%
Rainfall 0.00 in
Snow Depth 0 in , 0 in , 1 in
UV 0 out of 12
Pollen 4.20 out of 12
Air Quality Not available.
Flu Activity Not available.
METAR KSIY 161353Z AUTO 04008KT 10SM CLR 12/01 A2994 RMK AO2 SLP128 T01170011

More Conditions Fewer Conditions

10-Day Weather Forecast

Almanac

Astronomy

Sep. 16, 2014 Rise Set
Actual Time 6:53 AM PDT 7:19 PM PDT
Civil Twilight 6:25 AM PDT 7:46 PM PDT
Nautical Twilight 5:52 AM PDT 8:19 PM PDT
Astronomical Twilight 5:18 AM PDT 8:52 PM PDT
Moon 12:04 AM PDT 2:50 PM PDT
Length of Visible Light 13h 21m
Length of Day
12h 25m
Tomorrow will be 2m 45s shorter.
Last Quarter, 45% of the Moon is Illuminated
Today
Last Quarter
Sep 24
New
Oct 1
First Quarter
Oct 8
Full
Oct 15
Last Quarter

Today's Extremes

State Highs State Lows

Community

WunderPhotos

Upload Photos

1,753,782 photos uploaded!

Nearby

Snow Depth

Station Depth Elevation
Rubicon #2 0 in 7500 ft
Tahoe City Cross 0 in 6750 ft
Summit Meadow 0 in 9122 ft
Spratt Creek 1 in 6200 ft
Leavitt Lake 0 in 9400 ft

Earthquake Activity

City Distance Mag. Time & Date
Covelo, California 124 miles 3.3 1:17 PM PDT
2014-09-14
Minimum magnitude displayed is 2.5.

Coastal Water Temperatures

Place Temperature
No Stations Reporting

Nearby Weather Stations